This is the latest recevied weather packets stored in our database for station/object KE8ZLU. If no packets are shown the sender has not sent any weather packets the latest 10 day(s).
| Time | Temp. | Humidity | Pressure | Rain* | Wind** | Luminosity | Snow |
|---|---|---|---|---|---|---|---|
| 1778167117 | 9.44° C | 52% | 1015.1 hPa | 0 mm | - | 615 W/m² | - |
| 1778166813 | 8.89° C | 54% | 1014.9 hPa | 0 mm | - | 688 W/m² | - |
| 1778166510 | 8.89° C | 55% | 1015.1 hPa | 0 mm | - | 664 W/m² | - |
| 1778166207 | 8.89° C | 53% | 1015.1 hPa | 0 mm | - | 547 W/m² | - |
| 1778165903 | 8.33° C | 56% | 1014.9 hPa | 0 mm | - | 713 W/m² | - |
| 1778165599 | 9.44° C | 54% | 1014.9 hPa | 0 mm | - | 243 W/m² | - |
| 1778165297 | 8.89° C | 56% | 1014.9 hPa | 0 mm | - | 630 W/m² | - |
| 1778164994 | 8.89° C | 55% | 1015.1 hPa | 0 mm | - | 623 W/m² | - |
| 1778164690 | 8.33° C | 57% | 1014.8 hPa | 0 mm | - | 584 W/m² | - |
| 1778164388 | 7.78° C | 57% | 1014.9 hPa | 0 mm | - | 579 W/m² | - |
| 1778164083 | 9.44° C | 53% | 1014.9 hPa | 0 mm | - | 363 W/m² | - |
| 1778163780 | 8.89° C | 54% | 1014.8 hPa | 0 mm | - | 540 W/m² | - |
| 1778163477 | 8.33° C | 56% | 1015.1 hPa | 0 mm | - | 509 W/m² | - |
| 1778163174 | 8.33° C | 55% | 1015 hPa | 0 mm | - | 492 W/m² | - |
| 1778162870 | 8.33° C | 53% | 1015 hPa | 0 mm | - | 478 W/m² | - |
| 1778162264 | 6.67° C | 67% | 1015 hPa | 0 mm | - | 270 W/m² | - |
| 1778161962 | 6.67° C | 67% | 1015 hPa | 0 mm | - | 270 W/m² | - |
| 1778161657 | 6.67° C | 67% | 1014.9 hPa | 0 mm | - | 270 W/m² | - |
| 1778161354 | 6.67° C | 67% | 1015 hPa | 0 mm | - | 270 W/m² | - |
| 1778161050 | 6.67° C | 67% | 1014.8 hPa | 0 mm | - | 270 W/m² | - |
| 1778160747 | 6.67° C | 67% | 1014.9 hPa | 0 mm | - | 270 W/m² | - |
| 1778160445 | 6.67° C | 67% | 1015 hPa | 0 mm | - | 270 W/m² | - |
| 1778160141 | 6.67° C | 67% | 1014.9 hPa | 0 mm | - | 270 W/m² | - |
| 1778159838 | 6.67° C | 67% | 1015.1 hPa | 0 mm | - | 270 W/m² | - |
| 1778159535 | 6.67° C | 67% | 1014.8 hPa | 0 mm | - | 270 W/m² | - |
* Rain latest hour (hover to see other rain measurements)
** Current wind speed in m/s (hover to see current wind gust speed)